Time;durP1;ratioP1;P1;durP2;ratioP2;P2;SDS_P1;SDS_P2;PMS_P1;PMS_P2;Temp;Humidity;BMP_temperature;BMP_pressure;BME280_temperature;BME280_humidity;BME280_pressure;Samples;Min_cycle;Max_cycle;Signal;HPM_P1;HPM_P2
2022/03/30 00:00:49;;;;;;;75.60;15.35;;;17.90;57.70;;;;;;5108724;27;20035;-59
2022/03/30 00:03:15;;;;;;;68.20;14.48;;;17.90;57.80;;;;;;5124248;27;20395;-60
2022/03/30 00:05:40;;;;;;;71.70;15.27;;;17.80;57.70;;;;;;5110217;27;20479;-62
2022/03/30 00:08:06;;;;;;;73.53;15.48;;;17.80;57.80;;;;;;5109572;27;20539;-60
2022/03/30 00:10:32;;;;;;;55.90;15.63;;;17.80;57.80;;;;;;5110681;27;20031;-60
2022/03/30 00:12:58;;;;;;;57.22;13.65;;;17.80;57.80;;;;;;5084134;27;20189;-60
2022/03/30 00:15:24;;;;;;;44.70;14.13;;;17.80;57.80;;;;;;5091692;27;20110;-59
2022/03/30 00:17:50;;;;;;;60.78;14.13;;;17.80;57.70;;;;;;5121500;27;20063;-59
2022/03/30 00:20:15;;;;;;;56.85;14.25;;;17.80;57.80;;;;;;5093618;28;20561;-60
2022/03/30 00:22:41;;;;;;;65.50;14.70;;;17.80;57.80;;;;;;5080975;28;20100;-59
2022/03/30 00:25:07;;;;;;;55.35;14.45;;;17.70;57.70;;;;;;5100904;27;20042;-60
2022/03/30 00:27:33;;;;;;;57.28;14.48;;;17.70;57.80;;;;;;5110884;27;20047;-60
2022/03/30 00:29:59;;;;;;;49.42;14.32;;;17.90;57.90;;;;;;5116062;27;20043;-59
2022/03/30 00:32:24;;;;;;;61.03;14.30;;;17.70;57.80;;;;;;5099445;27;20066;-59
2022/03/30 00:34:50;;;;;;;63.67;14.57;;;17.70;57.90;;;;;;5120944;27;20080;-60
2022/03/30 00:37:15;;;;;;;67.28;14.65;;;17.70;57.90;;;;;;5121771;27;20471;-60
2022/03/30 00:39:41;;;;;;;54.22;12.50;;;17.70;57.80;;;;;;5083051;28;20539;-60
2022/03/30 00:42:17;;;;;;;51.03;13.23;;;17.70;57.70;;;;;;5118991;27;20457;-59
2022/03/30 00:44:42;;;;;;;;;;;17.70;57.80;;;;;;5125006;27;20016;-60
2022/03/30 00:47:32;;;;;;;45.70;12.95;;;17.70;57.80;;;;;;5116058;27;20282;-59
2022/03/30 00:49:57;;;;;;;56.05;14.45;;;17.60;57.70;;;;;;5117092;27;20051;-60
2022/03/30 00:52:23;;;;;;;44.50;12.52;;;17.70;57.80;;;;;;5117097;27;21081;-60
2022/03/30 00:54:50;;;;;;;56.47;13.30;;;17.60;57.80;;;;;;5103096;27;20054;-60
2022/03/30 00:57:17;;;;;;;48.17;12.57;;;17.60;57.90;;;;;;5089224;27;20027;-59
2022/03/30 00:59:43;;;;;;;51.03;13.15;;;17.50;57.90;;;;;;5123541;27;20500;-60
2022/03/30 01:02:09;;;;;;;53.00;13.98;;;17.50;57.90;;;;;;5118488;27;20020;-59
2022/03/30 01:04:35;;;;;;;52.88;12.40;;;17.50;57.90;;;;;;5107912;27;20028;-60
2022/03/30 01:07:00;;;;;;;44.08;12.80;;;17.50;57.90;;;;;;5092807;28;20038;-60
2022/03/30 01:09:26;;;;;;;43.13;13.75;;;17.50;57.90;;;;;;5119521;27;20332;-60
2022/03/30 01:11:55;;;;;;;48.78;14.23;;;17.40;58.60;;;;;;5101891;27;20112;-59
2022/03/30 01:14:21;;;;;;;47.47;12.38;;;17.50;58.10;;;;;;5100498;27;20084;-59
2022/03/30 01:16:46;;;;;;;43.13;11.55;;;17.40;58.00;;;;;;5117498;27;20024;-60
2022/03/30 01:19:12;;;;;;;43.25;12.40;;;17.40;58.00;;;;;;5118889;27;20340;-60
2022/03/30 01:21:39;;;;;;;45.75;12.48;;;17.40;58.00;;;;;;5105213;27;20069;-59
2022/03/30 01:24:05;;;;;;;47.83;12.20;;;17.40;58.10;;;;;;5078853;28;20026;-60
2022/03/30 01:26:30;;;;;;;42.17;12.50;;;17.40;58.00;;;;;;5114802;27;20035;-60
2022/03/30 01:28:56;;;;;;;47.40;12.40;;;17.30;58.00;;;;;;5119584;27;20053;-60
2022/03/30 01:34:05;;;;;;;41.30;12.70;;;17.40;58.00;;;;;;5124990;27;20487;-59
2022/03/30 01:36:31;;;;;;;52.25;12.48;;;17.40;58.00;;;;;;5078211;28;20044;-59
2022/03/30 01:38:56;;;;;;;34.25;11.68;;;17.40;57.90;;;;;;5100517;28;20030;-60
2022/03/30 01:41:22;;;;;;;49.38;13.00;;;17.40;58.00;;;;;;5080181;28;20114;-60
2022/03/30 01:43:47;;;;;;;46.88;12.07;;;17.40;58.00;;;;;;5097605;28;20042;-59
2022/03/30 01:46:13;;;;;;;50.50;12.18;;;17.40;58.10;;;;;;5076108;28;20540;-60
2022/03/30 01:48:38;;;;;;;37.65;11.43;;;17.40;58.20;;;;;;5079099;28;20152;-59
2022/03/30 01:51:04;;;;;;;38.08;11.88;;;17.30;58.10;;;;;;5103002;28;20031;-59
2022/03/30 01:53:30;;;;;;;36.22;11.07;;;17.30;58.20;;;;;;5099165;28;20028;-60
2022/03/30 01:55:55;;;;;;;41.42;11.98;;;17.30;58.30;;;;;;5110808;28;20106;-60
2022/03/30 01:58:21;;;;;;;40.22;11.90;;;17.30;58.40;;;;;;5099712;27;20035;-60
2022/03/30 02:00:46;;;;;;;35.25;11.75;;;17.20;58.40;;;;;;5121181;27;20165;-60
2022/03/30 02:03:12;;;;;;;44.60;11.40;;;17.20;58.50;;;;;;5101436;27;20072;-60
2022/03/30 02:05:38;;;;;;;36.20;11.18;;;17.20;58.50;;;;;;5100395;27;20398;-60
2022/03/30 02:08:04;;;;;;;43.13;11.52;;;17.20;58.60;;;;;;5111055;27;20016;-60
2022/03/30 02:10:30;;;;;;;39.30;10.98;;;17.20;58.70;;;;;;5100111;28;20046;-60
2022/03/30 02:12:55;;;;;;;42.35;11.95;;;17.20;58.80;;;;;;5121589;27;20027;-60
2022/03/30 02:15:22;;;;;;;35.03;11.40;;;17.10;58.70;;;;;;5101911;27;20081;-60
2022/03/30 02:17:48;;;;;;;35.47;10.90;;;17.10;58.70;;;;;;5126599;27;20396;-60
2022/03/30 02:20:13;;;;;;;37.60;11.50;;;17.10;58.70;;;;;;5129580;27;20165;-59
2022/03/30 02:22:40;;;;;;;44.97;12.23;;;17.10;58.80;;;;;;5130715;27;20538;-60
2022/03/30 02:25:05;;;;;;;40.40;12.23;;;17.10;58.80;;;;;;5093656;27;20038;-60
2022/03/30 02:27:31;;;;;;;38.95;11.20;;;17.10;58.90;;;;;;5119669;27;20015;-60
2022/03/30 02:29:56;;;;;;;37.25;11.30;;;17.10;58.90;;;;;;5125679;27;20495;-59
2022/03/30 02:32:22;;;;;;;45.40;11.35;;;17.00;58.90;;;;;;5126079;27;20427;-60
2022/03/30 02:34:47;;;;;;;32.50;10.23;;;17.00;59.00;;;;;;5088201;27;20135;-60
2022/03/30 02:37:13;;;;;;;32.17;10.95;;;17.00;59.10;;;;;;5105959;27;20525;-60
2022/03/30 02:39:39;;;;;;;40.40;11.95;;;17.00;59.10;;;;;;5106847;27;20054;-60
2022/03/30 02:42:06;;;;;;;30.80;10.13;;;17.00;59.30;;;;;;5097635;27;20022;-59
2022/03/30 02:44:32;;;;;;;32.83;10.02;;;16.90;59.30;;;;;;5090802;27;20019;-60
2022/03/30 02:46:57;;;;;;;37.47;10.80;;;16.90;59.40;;;;;;5107749;27;20030;-60
2022/03/30 02:49:24;;;;;;;31.77;10.27;;;16.90;59.40;;;;;;5104392;27;20060;-60
2022/03/30 02:51:50;;;;;;;36.55;11.55;;;16.90;59.40;;;;;;5121567;27;20044;-60
2022/03/30 02:54:15;;;;;;;37.75;10.63;;;16.80;59.40;;;;;;5128218;27;20341;-60
2022/03/30 02:56:41;;;;;;;29.92;10.52;;;16.90;59.70;;;;;;5101768;27;20080;-60
2022/03/30 02:59:06;;;;;;;34.00;11.02;;;16.80;59.50;;;;;;5109469;27;20066;-60
2022/03/30 03:01:32;;;;;;;35.70;10.75;;;16.90;60.20;;;;;;5121032;27;20024;-60
2022/03/30 03:03:58;;;;;;;34.17;9.55;;;16.80;59.60;;;;;;5127749;27;20046;-59
2022/03/30 03:06:23;;;;;;;40.53;10.13;;;16.80;59.70;;;;;;5118046;27;20035;-60
2022/03/30 03:08:49;;;;;;;32.95;10.02;;;16.80;59.80;;;;;;5099378;28;20028;-60
2022/03/30 03:11:15;;;;;;;35.75;10.30;;;16.80;59.90;;;;;;5120274;27;20288;-60
2022/03/30 03:13:40;;;;;;;39.28;9.75;;;16.80;60.00;;;;;;5121404;27;20038;-60
2022/03/30 03:16:06;;;;;;;36.45;10.18;;;16.80;60.00;;;;;;5127340;27;20071;-60
2022/03/30 03:18:31;;;;;;;44.08;10.63;;;16.70;59.90;;;;;;5121862;27;20039;-60
2022/03/30 03:20:57;;;;;;;59.95;10.93;;;16.70;59.90;;;;;;5124526;27;20023;-60
2022/03/30 03:23:22;;;;;;;46.10;11.73;;;16.70;60.00;;;;;;5109279;27;20019;-60
2022/03/30 03:25:48;;;;;;;55.50;11.73;;;16.70;60.00;;;;;;5125693;27;20641;-60
2022/03/30 03:28:14;;;;;;;60.08;11.70;;;16.70;60.00;;;;;;5086640;27;20499;-60
2022/03/30 03:30:39;;;;;;;47.92;11.90;;;16.70;60.10;;;;;;5110317;27;20092;-60
2022/03/30 03:33:05;;;;;;;47.38;11.75;;;16.70;60.20;;;;;;5120396;27;20024;-60
2022/03/30 03:35:31;;;;;;;50.17;11.13;;;16.60;60.30;;;;;;5072220;28;20058;-60
2022/03/30 03:37:57;;;;;;;48.00;11.43;;;16.60;60.30;;;;;;5122722;27;20031;-60
2022/03/30 03:40:22;;;;;;;40.53;11.05;;;16.60;60.40;;;;;;5090459;27;20303;-60
2022/03/30 03:42:48;;;;;;;48.70;11.48;;;16.60;60.50;;;;;;5109933;27;20423;-60
2022/03/30 03:45:14;;;;;;;51.28;10.77;;;16.60;60.50;;;;;;5088273;27;20034;-59
2022/03/30 03:47:41;;;;;;;44.35;10.65;;;16.50;60.50;;;;;;5124434;27;20450;-60
2022/03/30 03:50:07;;;;;;;45.15;10.07;;;16.50;60.60;;;;;;5114126;27;20371;-60
2022/03/30 03:52:32;;;;;;;40.53;10.07;;;16.50;60.60;;;;;;5094698;27;20466;-60
2022/03/30 03:54:58;;;;;;;35.20;10.57;;;16.40;60.60;;;;;;5122643;27;20115;-60
2022/03/30 03:57:23;;;;;;;37.88;10.70;;;16.40;60.70;;;;;;5106284;27;20035;-59
2022/03/30 03:59:49;;;;;;;42.28;9.98;;;16.40;60.80;;;;;;5102279;27;20176;-60
2022/03/30 04:02:14;;;;;;;43.08;11.50;;;16.40;60.80;;;;;;5126924;27;20094;-60
2022/03/30 04:04:40;;;;;;;42.65;10.30;;;16.40;60.80;;;;;;5107731;27;20390;-60
2022/03/30 04:07:06;;;;;;;45.72;10.40;;;16.40;60.80;;;;;;5105288;27;20460;-60
2022/03/30 04:09:32;;;;;;;49.50;10.88;;;16.40;60.80;;;;;;5104228;27;20058;-60
2022/03/30 04:11:57;;;;;;;43.80;9.82;;;16.40;60.90;;;;;;5096301;27;20080;-60
2022/03/30 04:14:23;;;;;;;46.75;10.43;;;16.40;60.90;;;;;;5116819;27;20020;-59
2022/03/30 04:16:49;;;;;;;46.97;9.90;;;16.40;60.90;;;;;;5123648;27;20522;-59
2022/03/30 04:19:17;;;;;;;41.40;10.45;;;16.40;60.90;;;;;;5101841;27;20138;-60
2022/03/30 04:21:43;;;;;;;37.17;10.07;;;16.40;60.90;;;;;;5104328;27;20070;-59
2022/03/30 04:24:09;;;;;;;38.80;9.75;;;16.40;60.90;;;;;;5114544;27;20363;-60
2022/03/30 04:26:34;;;;;;;41.17;9.88;;;16.40;61.00;;;;;;5105066;28;20292;-60
2022/03/30 04:29:00;;;;;;;42.83;10.70;;;16.30;61.00;;;;;;5100659;27;20478;-59
2022/03/30 04:31:25;;;;;;;36.08;9.90;;;16.30;61.10;;;;;;5125091;27;20047;-60
2022/03/30 04:33:53;;;;;;;35.13;9.85;;;16.30;61.10;;;;;;5101242;27;20020;-60
2022/03/30 04:36:18;;;;;;;34.22;9.45;;;16.30;61.10;;;;;;5127811;27;20060;-59
2022/03/30 04:38:44;;;;;;;39.03;9.25;;;16.30;61.10;;;;;;5105069;27;20110;-60
2022/03/30 04:41:09;;;;;;;34.70;9.98;;;16.20;61.10;;;;;;5124156;27;20069;-60
2022/03/30 04:43:35;;;;;;;32.58;8.50;;;16.20;61.20;;;;;;5118646;27;20487;-59
2022/03/30 04:46:00;;;;;;;40.22;10.15;;;16.20;61.20;;;;;;5122168;27;20019;-59
2022/03/30 04:48:26;;;;;;;36.47;8.85;;;16.20;61.20;;;;;;5098619;28;20040;-60
2022/03/30 04:50:52;;;;;;;40.88;9.82;;;16.20;61.20;;;;;;5124453;27;20016;-59
2022/03/30 04:53:17;;;;;;;27.45;9.50;;;16.20;61.30;;;;;;5087813;27;20526;-60
2022/03/30 04:55:43;;;;;;;32.08;8.05;;;16.20;61.30;;;;;;5107123;27;20049;-60
2022/03/30 04:58:08;;;;;;;27.08;8.52;;;16.20;61.30;;;;;;5126087;27;20030;-60
2022/03/30 05:00:34;;;;;;;35.40;8.88;;;16.20;61.40;;;;;;5084447;27;20049;-60
2022/03/30 05:02:59;;;;;;;31.02;9.40;;;16.20;61.40;;;;;;5120286;27;20447;-60
2022/03/30 05:05:25;;;;;;;31.00;8.57;;;16.10;61.40;;;;;;5086444;28;20464;-60
2022/03/30 05:07:51;;;;;;;33.00;9.55;;;16.10;61.60;;;;;;5088592;27;20031;-59
2022/03/30 05:10:17;;;;;;;31.25;10.32;;;16.10;61.80;;;;;;5125620;27;20358;-60
2022/03/30 05:12:43;;;;;;;31.58;8.90;;;16.10;61.90;;;;;;5121104;27;20027;-60
2022/03/30 05:15:11;;;;;;;29.88;8.93;;;16.10;62.00;;;;;;5100575;27;20031;-59
2022/03/30 05:17:37;;;;;;;34.45;9.48;;;16.10;62.10;;;;;;5095590;27;20458;-59
2022/03/30 05:20:04;;;;;;;27.08;8.60;;;16.10;62.20;;;;;;5102694;27;20023;-60
2022/03/30 05:22:29;;;;;;;32.08;8.70;;;16.10;62.20;;;;;;5119111;27;20054;-59
2022/03/30 05:24:55;;;;;;;34.47;8.98;;;16.00;62.20;;;;;;5103865;27;20593;-60
2022/03/30 05:27:21;;;;;;;23.65;8.52;;;16.00;62.20;;;;;;5117969;27;20466;-59
2022/03/30 05:29:46;;;;;;;26.33;8.00;;;16.00;62.30;;;;;;5120717;27;20055;-60
2022/03/30 05:32:12;;;;;;;35.95;9.05;;;16.00;62.70;;;;;;5100849;28;20111;-60
2022/03/30 05:34:37;;;;;;;25.02;8.90;;;16.00;62.40;;;;;;5120215;27;20146;-60
2022/03/30 05:37:03;;;;;;;29.15;8.90;;;15.80;62.30;;;;;;5127704;27;20054;-60
2022/03/30 05:39:30;;;;;;;30.25;9.07;;;16.00;62.40;;;;;;5125874;27;20391;-60
2022/03/30 05:41:55;;;;;;;26.05;9.35;;;16.00;62.50;;;;;;5119896;27;20036;-59
2022/03/30 05:44:21;;;;;;;29.08;8.70;;;16.00;62.50;;;;;;5101615;28;20368;-60
2022/03/30 05:46:46;;;;;;;30.25;8.68;;;16.00;62.60;;;;;;5106743;28;20299;-59
2022/03/30 05:49:12;;;;;;;34.35;9.05;;;16.00;62.60;;;;;;5101033;28;20027;-60
2022/03/30 05:51:37;;;;;;;30.85;8.90;;;16.00;62.60;;;;;;5099149;28;20028;-59
2022/03/30 05:54:03;;;;;;;35.30;9.35;;;16.00;62.60;;;;;;5122904;28;20035;-60
2022/03/30 05:59:15;;;;;;;27.38;8.80;;;16.00;62.60;;;;;;5110711;28;20047;-60
2022/03/30 06:01:40;;;;;;;28.08;8.48;;;15.90;62.70;;;;;;5100248;28;20027;-60
2022/03/30 06:04:06;;;;;;;25.20;8.10;;;15.90;62.80;;;;;;5086865;28;20080;-60
2022/03/30 06:06:32;;;;;;;26.88;8.30;;;15.90;62.90;;;;;;5113139;27;20179;-60
2022/03/30 06:08:57;;;;;;;26.80;8.57;;;15.90;63.00;;;;;;5098236;28;20379;-60
2022/03/30 06:11:23;;;;;;;30.38;8.68;;;15.90;63.00;;;;;;5095070;28;20028;-60
2022/03/30 06:13:48;;;;;;;26.52;8.60;;;15.90;63.10;;;;;;5120746;28;20363;-60
2022/03/30 06:16:15;;;;;;;29.83;8.98;;;15.90;63.30;;;;;;5123178;28;20542;-60
2022/03/30 06:18:40;;;;;;;37.72;9.15;;;15.90;63.30;;;;;;5091432;28;20458;-60
2022/03/30 06:21:06;;;;;;;27.80;8.15;;;15.90;63.30;;;;;;5102530;27;20046;-60
2022/03/30 06:23:31;;;;;;;25.95;7.70;;;15.90;63.40;;;;;;5085629;28;20108;-60
2022/03/30 06:25:57;;;;;;;24.25;8.38;;;15.90;63.70;;;;;;5097530;28;20398;-60
2022/03/30 06:28:26;;;;;;;30.80;8.20;;;15.90;63.70;;;;;;5098287;27;20036;-62
2022/03/30 06:30:52;;;;;;;28.30;8.55;;;15.90;63.70;;;;;;5117985;27;20050;-60
2022/03/30 06:33:17;;;;;;;28.52;8.15;;;15.90;63.80;;;;;;5092562;28;20039;-60
2022/03/30 06:35:43;;;;;;;23.42;7.53;;;15.90;63.90;;;;;;5094443;28;20268;-60
2022/03/30 06:38:08;;;;;;;31.02;8.13;;;15.80;63.90;;;;;;5092660;28;20035;-60
2022/03/30 06:40:34;;;;;;;25.35;7.60;;;15.80;64.00;;;;;;5114350;28;20042;-59
2022/03/30 06:43:00;;;;;;;26.80;7.97;;;15.80;64.20;;;;;;5095760;28;20043;-60
2022/03/30 06:45:26;;;;;;;30.88;8.30;;;15.80;64.30;;;;;;5117652;27;20076;-60
2022/03/30 06:47:52;;;;;;;25.85;7.53;;;15.80;64.40;;;;;;5095974;27;20031;-60
2022/03/30 06:50:19;;;;;;;29.63;9.23;;;15.80;64.30;;;;;;5115361;27;20042;-60
2022/03/30 06:52:45;;;;;;;45.60;8.57;;;15.80;64.30;;;;;;5115729;27;20030;-60
2022/03/30 06:55:12;;;;;;;31.88;7.93;;;15.80;64.30;;;;;;5084894;27;20150;-60
2022/03/30 06:57:38;;;;;;;37.00;8.23;;;15.80;64.50;;;;;;5105118;27;20499;-60
2022/03/30 07:00:05;;;;;;;32.92;8.43;;;15.80;64.50;;;;;;5098737;27;20049;-60
2022/03/30 07:02:30;;;;;;;41.85;8.95;;;15.80;64.60;;;;;;5088224;27;20211;-60
2022/03/30 07:04:56;;;;;;;41.08;9.73;;;15.80;65.10;;;;;;5099445;27;20130;-60
2022/03/30 07:10:15;;;;;;;45.35;9.40;;;15.80;64.80;;;;;;5107458;27;20050;-60
2022/03/30 07:12:45;;;;;;;40.00;8.97;;;15.80;65.10;;;;;;5102254;27;20142;-60
2022/03/30 07:15:10;;;;;;;53.55;10.57;;;15.80;65.10;;;;;;5097018;27;20292;-60
2022/03/30 07:17:43;;;;;;;46.25;10.77;;;15.80;65.40;;;;;;5119788;27;20026;-60
2022/03/30 07:20:10;;;;;;;79.00;12.48;;;15.80;65.10;;;;;;5108906;27;20023;-60
2022/03/30 07:22:36;;;;;;;62.08;11.35;;;15.80;65.20;;;;;;5093566;27;20034;-60
2022/03/30 07:25:01;;;;;;;64.10;11.48;;;15.80;65.30;;;;;;5093167;27;20039;-60
2022/03/30 07:27:27;;;;;;;75.18;11.20;;;15.90;65.40;;;;;;5108911;27;20051;-60
2022/03/30 07:29:52;;;;;;;75.53;12.88;;;15.90;65.40;;;;;;5096136;27;20058;-60
2022/03/30 07:32:19;;;;;;;101.15;13.00;;;15.80;65.60;;;;;;5105939;27;20514;-60
2022/03/30 07:34:45;;;;;;;88.70;15.18;;;15.80;65.70;;;;;;5096740;27;20023;-60
2022/03/30 07:37:10;;;;;;;96.18;14.55;;;15.80;66.00;;;;;;5099434;27;20027;-60
2022/03/30 07:39:36;;;;;;;75.68;13.30;;;15.80;66.10;;;;;;5098325;27;21015;-59
2022/03/30 07:42:02;;;;;;;92.43;14.30;;;15.80;66.10;;;;;;5093774;27;20387;-60
2022/03/30 07:44:27;;;;;;;100.38;14.93;;;15.80;66.20;;;;;;5080024;27;20039;-60
2022/03/30 07:46:53;;;;;;;69.95;14.07;;;15.80;66.40;;;;;;5107331;27;20111;-60
2022/03/30 07:49:19;;;;;;;70.57;12.77;;;15.80;66.40;;;;;;5108525;27;20140;-59
2022/03/30 07:51:44;;;;;;;87.03;13.82;;;15.80;66.30;;;;;;5096403;27;20114;-59
2022/03/30 07:54:10;;;;;;;83.63;12.75;;;15.80;66.40;;;;;;5107164;27;20059;-60
2022/03/30 07:56:35;;;;;;;87.15;13.88;;;15.80;66.80;;;;;;5119458;27;20043;-59
2022/03/30 07:59:01;;;;;;;92.10;14.15;;;15.80;66.80;;;;;;5110846;27;20026;-60
2022/03/30 08:01:27;;;;;;;78.90;12.82;;;15.80;66.80;;;;;;5103503;27;20050;-60
2022/03/30 08:03:52;;;;;;;78.22;13.05;;;15.80;66.90;;;;;;5117825;27;20028;-60
2022/03/30 08:06:18;;;;;;;61.45;11.70;;;15.80;67.10;;;;;;5108536;27;20463;-61
2022/03/30 08:08:43;;;;;;;60.15;11.85;;;15.80;67.30;;;;;;5068972;27;20068;-60
2022/03/30 08:11:09;;;;;;;50.97;11.23;;;15.70;67.20;;;;;;5116731;27;20534;-59
2022/03/30 08:13:35;;;;;;;69.45;12.95;;;15.70;67.40;;;;;;5109631;27;20035;-59
2022/03/30 08:16:00;;;;;;;71.53;12.65;;;15.80;67.50;;;;;;5116299;27;20481;-59
2022/03/30 08:18:26;;;;;;;69.53;10.63;;;15.70;67.60;;;;;;5090527;28;20033;-60
2022/03/30 08:23:36;;;;;;;67.38;11.80;;;15.70;67.70;;;;;;5093569;27;20069;-59
2022/03/30 08:26:02;;;;;;;62.60;12.57;;;15.70;67.90;;;;;;5113331;27;20118;-59
2022/03/30 08:28:27;;;;;;;68.13;12.98;;;15.70;68.00;;;;;;5116912;27;20398;-59
2022/03/30 08:30:53;;;;;;;68.50;11.98;;;15.80;68.10;;;;;;5082755;28;20499;-59
2022/03/30 08:33:23;;;;;;;87.80;12.20;;;15.70;68.00;;;;;;5093397;27;20031;-60
2022/03/30 08:35:51;;;;;;;66.97;12.65;;;15.70;68.20;;;;;;5053196;28;20032;-59
2022/03/30 08:38:20;;;;;;;76.50;12.75;;;15.70;68.40;;;;;;5078494;27;20084;-59
2022/03/30 08:40:45;;;;;;;68.15;12.63;;;15.70;68.60;;;;;;5068079;28;20752;-58
2022/03/30 08:43:11;;;;;;;79.50;13.43;;;15.70;68.70;;;;;;5063985;27;20120;-59
2022/03/30 08:45:36;;;;;;;63.58;11.50;;;15.80;68.70;;;;;;5094118;27;20410;-59
2022/03/30 08:48:02;;;;;;;60.70;11.43;;;15.70;68.70;;;;;;5081942;28;20054;-59
2022/03/30 08:50:28;;;;;;;59.45;11.85;;;15.70;68.90;;;;;;5064275;28;20432;-59
2022/03/30 08:52:55;;;;;;;50.08;10.55;;;15.70;69.10;;;;;;5091365;27;20115;-59
2022/03/30 08:55:21;;;;;;;63.22;12.48;;;15.80;69.10;;;;;;5074197;28;20076;-59
2022/03/30 08:57:47;;;;;;;54.83;11.52;;;15.70;69.30;;;;;;5066906;28;20028;-59
2022/03/30 09:00:17;;;;;;;68.47;12.60;;;15.70;69.60;;;;;;5079942;28;20020;-59
2022/03/30 09:02:55;;;;;;;66.82;11.27;;;15.70;69.40;;;;;;5081087;28;20039;-59
2022/03/30 09:05:22;;;;;;;50.05;10.43;;;15.70;69.20;;;;;;5076743;28;20020;-59
2022/03/30 09:07:50;;;;;;;52.97;11.07;;;15.80;69.20;;;;;;5091910;28;20027;-60
2022/03/30 09:10:18;;;;;;;52.00;9.88;;;15.80;69.50;;;;;;5061337;28;20058;-59
2022/03/30 09:12:44;;;;;;;59.60;10.98;;;15.80;69.50;;;;;;5066483;28;20063;-59
2022/03/30 09:15:09;;;;;;;55.25;11.80;;;15.80;69.70;;;;;;5080517;28;20071;-58
2022/03/30 09:17:36;;;;;;;71.28;11.50;;;15.80;69.70;;;;;;5081690;28;20059;-59
2022/03/30 09:20:05;;;;;;;57.65;10.00;;;15.80;69.70;;;;;;5058030;28;20120;-59
2022/03/30 09:22:33;;;;;;;70.15;12.38;;;15.80;69.80;;;;;;5074511;28;20470;-58
2022/03/30 09:25:00;;;;;;;62.67;11.52;;;15.80;70.20;;;;;;5067582;28;21767;-59
2022/03/30 09:27:27;;;;;;;60.58;12.32;;;15.80;70.40;;;;;;5072039;28;20751;-60
2022/03/30 09:29:52;;;;;;;63.45;11.40;;;15.80;70.20;;;;;;5063328;28;20086;-59
2022/03/30 09:32:18;;;;;;;50.20;11.95;;;15.80;70.40;;;;;;5085604;28;20460;-59
2022/03/30 09:34:51;;;;;;;60.78;11.93;;;15.90;70.40;;;;;;5080710;28;20614;-60
2022/03/30 09:37:17;;;;;;;48.00;9.82;;;15.90;70.60;;;;;;5090423;28;20053;-59
2022/03/30 09:39:43;;;;;;;67.35;11.35;;;15.90;70.30;;;;;;5083316;28;20032;-59
2022/03/30 09:42:10;;;;;;;58.10;12.20;;;15.90;70.20;;;;;;5096959;28;20026;-59
2022/03/30 09:44:51;;;;;;;66.00;11.65;;;15.90;70.50;;;;;;5074082;28;20031;-59
2022/03/30 09:47:18;;;;;;;62.58;11.48;;;15.90;70.70;;;;;;5083486;28;20020;-59
2022/03/30 09:49:48;;;;;;;63.10;10.90;;;15.90;70.70;;;;;;5095587;28;20059;-60
2022/03/30 09:52:23;;;;;;;85.72;12.57;;;15.90;70.60;;;;;;5067590;28;20065;-59
2022/03/30 09:54:54;;;;;;;38.47;10.80;;;15.90;70.90;;;;;;5097537;28;20042;-59
2022/03/30 09:57:20;;;;;;;60.15;12.07;;;16.00;71.10;;;;;;5076068;28;20036;-62
2022/03/30 10:00:14;;;;;;;66.22;10.70;;;16.00;71.10;;;;;;5084881;28;20126;-61
2022/03/30 10:02:51;;;;;;;63.08;11.45;;;16.00;71.00;;;;;;5072769;28;20384;-59
2022/03/30 10:05:21;;;;;;;56.00;10.45;;;16.00;71.40;;;;;;5066498;28;20434;-59
2022/03/30 10:07:47;;;;;;;67.05;11.27;;;16.00;71.40;;;;;;5075946;28;20059;-59
2022/03/30 10:10:14;;;;;;;46.42;10.07;;;16.00;71.70;;;;;;5077747;28;20468;-59
2022/03/30 10:12:40;;;;;;;62.28;11.00;;;16.00;71.80;;;;;;5071391;28;20448;-59
2022/03/30 10:15:06;;;;;;;59.85;10.82;;;16.00;71.90;;;;;;5057263;28;20077;-59
2022/03/30 10:17:32;;;;;;;57.47;10.25;;;16.00;72.00;;;;;;5097185;28;20060;-59
2022/03/30 10:20:01;;;;;;;67.05;12.02;;;16.00;72.00;;;;;;5080555;28;20028;-59
2022/03/30 10:22:38;;;;;;;46.90;10.13;;;16.00;72.20;;;;;;5079571;28;20084;-59
2022/03/30 10:25:24;;;;;;;63.70;11.93;;;16.00;72.30;;;;;;5101347;28;20024;-62
2022/03/30 10:27:54;;;;;;;50.38;10.02;;;16.00;72.40;;;;;;5073296;28;20059;-59
2022/03/30 10:30:28;;;;;;;50.60;10.50;;;15.90;72.30;;;;;;5077205;28;20134;-59
2022/03/30 10:32:55;;;;;;;68.07;10.77;;;16.00;72.70;;;;;;5081295;28;20028;-60
2022/03/30 10:35:21;;;;;;;59.85;12.02;;;16.00;72.60;;;;;;5082951;28;20028;-59
2022/03/30 10:37:59;;;;;;;82.85;10.25;;;16.00;72.60;;;;;;5047413;28;20038;-59
2022/03/30 10:40:25;;;;;;;63.20;11.07;;;16.00;72.60;;;;;;5081420;28;20357;-59
2022/03/30 10:42:54;;;;;;;57.10;10.43;;;16.10;72.70;;;;;;5100694;28;20054;-59
2022/03/30 10:45:28;;;;;;;68.85;11.73;;;16.10;72.80;;;;;;5096079;28;20035;-59
2022/03/30 10:48:13;;;;;;;68.77;10.63;;;16.10;72.90;;;;;;5094363;28;20035;-59
2022/03/30 10:50:43;;;;;;;56.70;11.27;;;16.10;72.70;;;;;;5077911;28;20505;-59
2022/03/30 10:53:39;;;;;;;54.08;9.90;;;16.10;72.70;;;;;;5065295;28;20100;-60
2022/03/30 10:56:07;;;;;;;53.92;10.45;;;16.20;72.80;;;;;;5059838;28;20028;-58
2022/03/30 10:58:33;;;;;;;61.20;9.50;;;16.20;72.70;;;;;;5094949;28;20038;-59
2022/03/30 11:01:32;;;;;;;55.83;10.30;;;16.20;72.70;;;;;;5089701;28;20499;-59
2022/03/30 11:03:59;;;;;;;63.25;11.52;;;16.20;72.70;;;;;;5040623;27;20381;-59
2022/03/30 11:06:25;;;;;;;67.28;11.40;;;16.20;72.70;;;;;;5075979;28;20027;-59
2022/03/30 11:08:51;;;;;;;145.07;17.70;;;16.20;72.60;;;;;;5075765;28;20027;-59
2022/03/30 11:11:26;;;;;;;73.80;13.38;;;16.30;73.00;;;;;;5092973;28;20049;-59
2022/03/30 11:14:21;;;;;;;97.68;14.15;;;16.40;73.60;;;;;;5095353;28;20069;-59
2022/03/30 11:16:48;;;;;;;81.70;14.45;;;16.40;73.70;;;;;;5093715;28;20053;-59
2022/03/30 11:19:13;;;;;;;70.05;12.80;;;16.50;74.00;;;;;;5090442;28;20471;-59
2022/03/30 11:21:39;;;;;;;95.93;13.73;;;16.50;73.70;;;;;;5075862;28;20084;-61
2022/03/30 11:24:11;;;;;;;77.68;12.48;;;16.60;73.90;;;;;;5078850;28;20074;-60
2022/03/30 11:26:49;;;;;;;118.30;14.52;;;16.60;74.00;;;;;;5088846;28;20132;-60
2022/03/30 11:29:39;;;;;;;101.32;15.18;;;16.60;73.90;;;;;;5089065;28;20036;-60
2022/03/30 11:32:24;;;;;;;101.93;13.13;;;16.60;74.00;;;;;;5081567;28;20260;-61
2022/03/30 11:34:52;;;;;;;177.48;21.35;;;16.60;74.10;;;;;;5093611;28;20415;-60
2022/03/30 11:37:19;;;;;;;70.78;11.88;;;16.60;74.30;;;;;;5073935;28;20027;-60
2022/03/30 11:39:44;;;;;;;59.75;11.52;;;16.60;74.20;;;;;;5081443;28;20083;-60
2022/03/30 11:42:10;;;;;;;72.03;11.65;;;16.60;74.30;;;;;;5073368;28;20120;-60
2022/03/30 11:47:24;;;;;;;69.60;11.07;;;16.60;73.60;;;;;;5089462;27;20127;-60
2022/03/30 11:49:55;;;;;;;57.30;10.60;;;16.60;73.30;;;;;;5095809;27;20028;-60
2022/03/30 11:52:22;;;;;;;91.20;12.20;;;16.60;73.30;;;;;;5095007;27;20030;-60
2022/03/30 11:54:48;;;;;;;71.47;11.32;;;16.70;73.70;;;;;;5107091;27;20394;-59
2022/03/30 11:57:15;;;;;;;59.13;12.15;;;16.70;74.20;;;;;;5101139;27;20051;-60
2022/03/30 11:59:40;;;;;;;67.78;11.38;;;16.70;74.20;;;;;;5051061;27;20054;-60
2022/03/30 12:02:07;;;;;;;68.28;11.05;;;16.80;74.20;;;;;;5107176;27;20134;-60
2022/03/30 12:04:33;;;;;;;70.65;10.95;;;16.80;74.10;;;;;;5061088;27;20102;-60
2022/03/30 12:06:58;;;;;;;70.35;11.70;;;16.80;74.10;;;;;;5105601;27;20618;-60
2022/03/30 12:09:23;;;;;;;71.75;10.73;;;16.80;74.10;;;;;;5071768;27;21910;-60
2022/03/30 12:11:50;;;;;;;80.25;11.63;;;16.90;74.20;;;;;;5091660;27;20472;-59
2022/03/30 12:14:25;;;;;;;64.47;10.82;;;16.90;74.30;;;;;;5082775;27;20065;-60
2022/03/30 12:16:51;;;;;;;;;;;16.90;74.50;;;;;;5099272;27;20045;-61
2022/03/30 12:19:16;;;;;;;69.55;11.23;;;16.90;74.30;;;;;;5099715;27;19911;-60
2022/03/30 12:21:42;;;;;;;58.35;10.57;;;17.00;74.10;;;;;;5105541;27;20204;-60
2022/03/30 12:24:10;;;;;;;65.82;10.23;;;17.00;74.00;;;;;;5105302;27;20179;-60
2022/03/30 12:26:35;;;;;;;65.00;10.27;;;17.00;74.10;;;;;;5107046;27;20015;-60
2022/03/30 12:29:09;;;;;;;67.45;10.07;;;17.00;73.90;;;;;;5061341;27;20027;-60
2022/03/30 12:31:36;;;;;;;70.65;11.65;;;17.10;73.80;;;;;;5067020;27;20585;-60
2022/03/30 12:34:15;;;;;;;38.30;9.65;;;17.10;73.80;;;;;;5061955;28;20089;-60
2022/03/30 12:36:42;;;;;;;71.78;11.32;;;17.10;73.70;;;;;;5065981;28;20134;-60
2022/03/30 12:39:15;;;;;;;93.43;15.85;;;17.10;73.50;;;;;;5072310;28;20180;-60
2022/03/30 12:41:41;;;;;;;95.13;13.75;;;17.20;73.60;;;;;;5059113;28;20046;-60
2022/03/30 12:44:07;;;;;;;82.00;13.35;;;17.20;73.70;;;;;;5071199;28;20430;-60